Time;durP1;ratioP1;P1;durP2;ratioP2;P2;SDS_P1;SDS_P2;PMS_P1;PMS_P2;Temp;Humidity;BMP_temperature;BMP_pressure;BME280_temperature;BME280_humidity;BME280_pressure;Samples;Min_cycle;Max_cycle;Signal;HPM_P1;HPM_P2
2022/06/25 00:01:18;;;;;;;2.50;1.45;;;18.20;80.80;;;;;;4994822;28;20085;-68
2022/06/25 00:03:44;;;;;;;2.55;1.48;;;18.20;80.80;;;;;;4994245;28;20076;-68
2022/06/25 00:06:12;;;;;;;3.13;1.30;;;18.20;80.70;;;;;;4995556;28;20046;-68
2022/06/25 00:08:38;;;;;;;2.35;1.30;;;18.20;80.70;;;;;;4993539;28;20034;-66
2022/06/25 00:11:05;;;;;;;1.30;1.20;;;18.20;80.80;;;;;;4995722;28;20092;-68
2022/06/25 00:13:32;;;;;;;1.35;1.25;;;18.20;80.70;;;;;;4993331;28;20141;-68
2022/06/25 00:15:58;;;;;;;2.10;1.00;;;18.20;80.60;;;;;;4994921;28;20409;-68
2022/06/25 00:18:24;;;;;;;1.50;1.40;;;18.20;80.60;;;;;;4996049;28;20597;-69
2022/06/25 00:20:49;;;;;;;1.10;1.10;;;18.20;80.70;;;;;;4996316;28;20065;-68
2022/06/25 00:23:15;;;;;;;2.25;1.42;;;18.20;80.70;;;;;;4998816;28;20034;-68
2022/06/25 00:25:41;;;;;;;2.03;1.40;;;18.20;80.60;;;;;;4995434;28;20034;-68
2022/06/25 00:28:07;;;;;;;1.38;1.02;;;18.20;80.50;;;;;;4997900;28;20064;-68
2022/06/25 00:30:32;;;;;;;3.15;1.20;;;18.20;80.60;;;;;;4998992;28;20461;-67
2022/06/25 00:32:58;;;;;;;1.35;1.25;;;18.20;80.40;;;;;;4986560;28;20030;-67
2022/06/25 00:35:25;;;;;;;2.00;1.33;;;18.10;80.10;;;;;;4998377;28;20080;-68
2022/06/25 00:37:51;;;;;;;1.20;1.10;;;18.10;80.10;;;;;;4998546;28;20053;-68
2022/06/25 00:40:16;;;;;;;1.60;1.10;;;18.00;80.10;;;;;;4996496;28;20502;-68
2022/06/25 00:42:44;;;;;;;1.58;1.20;;;17.90;80.30;;;;;;4997354;28;20041;-68
2022/06/25 00:45:10;;;;;;;1.77;1.10;;;17.90;81.20;;;;;;4998024;28;20026;-67
2022/06/25 00:47:35;;;;;;;3.20;0.93;;;17.80;80.50;;;;;;4998104;28;20045;-68
2022/06/25 00:50:01;;;;;;;1.20;1.10;;;17.70;80.60;;;;;;4996638;28;20527;-67
2022/06/25 00:52:31;;;;;;;2.10;1.30;;;17.70;80.80;;;;;;4996569;28;20117;-68
2022/06/25 00:55:06;;;;;;;2.65;1.27;;;17.60;80.80;;;;;;4996548;28;20038;-66
2022/06/25 00:57:33;;;;;;;1.95;1.45;;;17.60;81.30;;;;;;4997160;28;20049;-68
2022/06/25 01:00:04;;;;;;;2.03;1.02;;;17.50;81.00;;;;;;4993699;28;20082;-68
2022/06/25 01:02:30;;;;;;;5.05;1.40;;;17.40;81.20;;;;;;5001492;28;20375;-68
2022/06/25 01:04:56;;;;;;;2.38;1.20;;;17.40;81.30;;;;;;4996273;28;20045;-68
2022/06/25 01:07:22;;;;;;;1.63;1.20;;;17.30;81.40;;;;;;4999245;28;20026;-68
2022/06/25 01:09:51;;;;;;;3.13;1.30;;;17.30;81.50;;;;;;4995385;28;20092;-68
2022/06/25 01:12:17;;;;;;;2.22;1.38;;;17.30;81.70;;;;;;4993414;28;20042;-68
2022/06/25 01:14:43;;;;;;;6.18;1.55;;;17.20;81.50;;;;;;4996743;28;20096;-67
2022/06/25 01:17:09;;;;;;;2.47;1.10;;;17.20;81.60;;;;;;4998046;28;20126;-68
2022/06/25 01:19:36;;;;;;;2.45;1.20;;;17.20;81.70;;;;;;4995904;28;20049;-68
2022/06/25 01:22:06;;;;;;;3.80;0.95;;;17.20;81.70;;;;;;4995586;28;20084;-69
2022/06/25 01:24:32;;;;;;;1.83;1.25;;;17.10;81.90;;;;;;4993505;28;20036;-67
2022/06/25 01:26:58;;;;;;;3.33;1.20;;;17.10;82.00;;;;;;4993368;28;20042;-68
2022/06/25 01:29:24;;;;;;;2.08;1.40;;;17.10;82.20;;;;;;4991091;28;20519;-67
2022/06/25 01:31:51;;;;;;;1.35;1.25;;;17.10;82.40;;;;;;4991542;28;20072;-67
2022/06/25 01:34:17;;;;;;;1.55;1.30;;;17.10;82.40;;;;;;4992296;28;20060;-68
2022/06/25 01:36:43;;;;;;;1.10;1.00;;;17.20;82.30;;;;;;4993095;28;20030;-68
2022/06/25 01:39:09;;;;;;;2.70;1.23;;;17.20;82.10;;;;;;4994609;28;20030;-68
2022/06/25 01:41:35;;;;;;;2.40;1.23;;;17.20;81.80;;;;;;4990918;28;20057;-68
2022/06/25 01:44:00;;;;;;;1.50;1.40;;;17.20;81.70;;;;;;4995319;28;20513;-67
2022/06/25 01:46:26;;;;;;;3.90;1.30;;;17.30;81.50;;;;;;4990826;28;20646;-66
2022/06/25 01:48:52;;;;;;;2.45;1.30;;;17.30;81.20;;;;;;4993906;28;20137;-67
2022/06/25 01:51:20;;;;;;;3.35;1.58;;;17.30;80.90;;;;;;4993095;28;20600;-68
2022/06/25 01:53:45;;;;;;;9.40;1.30;;;17.20;80.70;;;;;;4993906;28;20033;-68
2022/06/25 01:56:11;;;;;;;2.58;1.08;;;17.20;80.80;;;;;;4990528;28;20510;-67
2022/06/25 01:58:37;;;;;;;0.98;0.98;;;17.20;81.00;;;;;;4991140;28;20521;-68
2022/06/25 02:01:04;;;;;;;2.17;1.05;;;17.10;81.20;;;;;;4992365;28;20046;-68
2022/06/25 02:03:29;;;;;;;3.70;1.30;;;17.10;81.40;;;;;;4993256;28;20426;-68
2022/06/25 02:05:58;;;;;;;1.75;1.25;;;17.10;81.30;;;;;;4992427;28;20045;-68
2022/06/25 02:08:24;;;;;;;9.10;1.10;;;17.10;81.30;;;;;;4992306;28;20625;-67
2022/06/25 02:10:51;;;;;;;1.52;1.40;;;17.20;81.10;;;;;;4995003;28;20103;-68
2022/06/25 02:13:17;;;;;;;2.22;1.23;;;17.10;81.00;;;;;;4999080;28;20452;-68
2022/06/25 02:15:43;;;;;;;2.50;1.00;;;17.10;81.00;;;;;;4998700;28;20183;-68
2022/06/25 02:18:10;;;;;;;2.08;1.17;;;17.10;81.00;;;;;;4998875;28;20540;-68
2022/06/25 02:20:37;;;;;;;1.48;1.27;;;17.10;81.30;;;;;;4996697;28;20068;-68
2022/06/25 02:23:03;;;;;;;1.90;1.40;;;17.10;81.40;;;;;;4993836;28;20576;-68
2022/06/25 02:25:29;;;;;;;1.55;1.05;;;17.10;81.50;;;;;;4994805;28;21019;-67
2022/06/25 02:27:54;;;;;;;1.30;1.20;;;17.20;81.50;;;;;;4993441;28;20549;-68
2022/06/25 02:30:20;;;;;;;3.03;1.10;;;17.10;81.20;;;;;;4991990;28;20113;-68
2022/06/25 02:32:46;;;;;;;2.97;1.48;;;17.20;81.20;;;;;;4990205;28;20042;-67
2022/06/25 02:35:12;;;;;;;3.00;1.52;;;17.20;81.20;;;;;;4988387;28;20058;-67
2022/06/25 02:37:37;;;;;;;3.75;1.35;;;17.20;81.20;;;;;;4993823;28;20069;-68
2022/06/25 02:40:04;;;;;;;2.75;1.50;;;17.20;81.00;;;;;;4982544;28;20659;-67
2022/06/25 02:42:38;;;;;;;2.05;1.75;;;17.20;80.80;;;;;;4994126;28;20042;-67
2022/06/25 02:45:04;;;;;;;2.22;1.80;;;17.20;81.00;;;;;;4992687;28;20497;-67
2022/06/25 02:47:30;;;;;;;1.73;1.63;;;17.20;80.90;;;;;;4992097;28;20030;-67
2022/06/25 02:49:56;;;;;;;1.73;1.63;;;17.20;81.00;;;;;;4992475;28;20335;-68
2022/06/25 02:52:22;;;;;;;2.88;2.05;;;17.20;81.10;;;;;;4992141;28;20038;-66
2022/06/25 02:54:48;;;;;;;1.80;1.70;;;17.10;81.10;;;;;;4993305;28;20042;-67
2022/06/25 02:59:58;;;;;;;2.80;1.50;;;17.10;81.20;;;;;;4993630;28;20539;-68
2022/06/25 03:02:24;;;;;;;1.77;1.60;;;17.10;81.20;;;;;;4992506;28;20601;-67
2022/06/25 03:04:49;;;;;;;2.20;1.75;;;17.00;81.40;;;;;;4990290;28;20049;-68
2022/06/25 03:07:15;;;;;;;10.80;1.70;;;17.00;81.60;;;;;;4995253;28;20041;-67
2022/06/25 03:09:40;;;;;;;5.03;1.90;;;17.00;81.80;;;;;;4990535;28;20125;-67
2022/06/25 03:12:07;;;;;;;3.78;2.03;;;17.00;82.00;;;;;;4994539;28;20034;-68
2022/06/25 03:14:33;;;;;;;2.28;2.08;;;17.00;82.20;;;;;;4989919;28;20030;-67
2022/06/25 03:16:58;;;;;;;2.92;2.00;;;17.00;82.20;;;;;;4995007;28;20053;-68
2022/06/25 03:19:24;;;;;;;2.40;2.08;;;17.00;82.20;;;;;;4991988;28;20030;-67
2022/06/25 03:21:50;;;;;;;2.95;2.17;;;17.00;82.00;;;;;;4993488;28;20034;-68
2022/06/25 03:24:16;;;;;;;3.35;2.63;;;17.00;81.90;;;;;;4991973;28;20508;-66
2022/06/25 03:26:41;;;;;;;6.65;2.38;;;17.10;82.00;;;;;;4992068;28;20429;-67
2022/06/25 03:29:07;;;;;;;3.63;2.72;;;17.10;82.00;;;;;;4992675;28;20030;-68
2022/06/25 03:31:32;;;;;;;3.17;2.95;;;17.10;82.00;;;;;;4991435;28;20450;-67
2022/06/25 03:33:58;;;;;;;3.30;3.00;;;17.10;82.00;;;;;;4991397;28;20061;-68
2022/06/25 03:36:24;;;;;;;3.72;3.42;;;17.10;81.90;;;;;;4990354;28;20077;-67
2022/06/25 03:38:49;;;;;;;3.95;3.55;;;17.10;81.90;;;;;;4991783;28;20400;-68
2022/06/25 03:41:35;;;;;;;4.28;3.85;;;17.20;81.90;;;;;;4995031;28;20521;-68
2022/06/25 03:44:06;;;;;;;4.50;4.10;;;17.20;82.00;;;;;;4978546;28;21217;-67
2022/06/25 03:46:33;;;;;;;6.05;5.55;;;17.20;82.00;;;;;;4990113;28;20046;-67
2022/06/25 03:48:59;;;;;;;6.70;5.93;;;17.20;82.00;;;;;;4991239;28;20038;-68
2022/06/25 03:51:25;;;;;;;7.15;6.45;;;17.20;82.10;;;;;;4992352;28;20035;-68
2022/06/25 03:53:51;;;;;;;7.85;6.43;;;17.30;82.30;;;;;;4990973;28;20036;-68
2022/06/25 03:56:16;;;;;;;7.70;6.95;;;17.30;82.60;;;;;;4992322;28;20374;-68
2022/06/25 03:58:42;;;;;;;8.10;7.28;;;17.30;82.70;;;;;;4992422;28;20493;-68
2022/06/25 04:01:08;;;;;;;7.88;7.07;;;17.30;82.80;;;;;;4992393;28;20033;-68
2022/06/25 04:03:34;;;;;;;8.05;6.68;;;17.30;82.90;;;;;;4991192;28;20445;-68
2022/06/25 04:05:59;;;;;;;8.20;7.40;;;17.30;82.90;;;;;;4990104;28;20041;-67
2022/06/25 04:08:25;;;;;;;8.07;7.25;;;17.30;83.00;;;;;;4991730;28;20729;-68
2022/06/25 04:10:51;;;;;;;8.77;7.10;;;17.30;83.00;;;;;;4991014;28;20042;-68
2022/06/25 04:13:16;;;;;;;7.82;6.75;;;17.40;83.10;;;;;;4996438;28;20778;-68
2022/06/25 04:15:42;;;;;;;7.85;7.00;;;17.40;83.10;;;;;;4989150;28;20065;-68
2022/06/25 04:18:08;;;;;;;8.20;6.82;;;17.40;83.00;;;;;;4992907;28;20042;-68
2022/06/25 04:20:34;;;;;;;8.75;7.55;;;17.40;83.10;;;;;;4988797;28;20130;-66
2022/06/25 04:22:59;;;;;;;8.63;6.72;;;17.40;83.10;;;;;;4992319;28;20105;-67
2022/06/25 04:25:25;;;;;;;7.40;6.70;;;17.50;83.10;;;;;;4992250;28;20035;-66
2022/06/25 04:30:35;;;;;;;7.20;6.50;;;17.50;82.80;;;;;;4991895;28;20577;-68
2022/06/25 04:33:01;;;;;;;7.40;6.28;;;17.50;82.70;;;;;;4991807;28;20042;-67
2022/06/25 04:35:27;;;;;;;7.47;6.40;;;17.50;82.70;;;;;;4989974;28;20532;-68
2022/06/25 04:37:53;;;;;;;6.78;6.07;;;17.50;82.70;;;;;;4991699;28;20042;-68
2022/06/25 04:40:18;;;;;;;6.78;6.13;;;17.50;82.60;;;;;;4989671;28;20030;-67
2022/06/25 04:42:47;;;;;;;9.05;6.60;;;17.50;82.60;;;;;;4991620;28;20039;-68
2022/06/25 04:45:13;;;;;;;6.57;5.95;;;17.50;82.60;;;;;;4990517;28;20034;-67
2022/06/25 04:47:39;;;;;;;7.30;6.57;;;17.50;82.70;;;;;;4990758;28;20037;-67
2022/06/25 04:50:06;;;;;;;7.05;5.88;;;17.50;82.70;;;;;;4992320;28;20038;-68
2022/06/25 04:52:31;;;;;;;6.50;5.78;;;17.50;82.90;;;;;;4989669;28;20045;-68
2022/06/25 04:54:57;;;;;;;6.10;5.50;;;17.40;82.90;;;;;;4988620;28;20522;-66
2022/06/25 04:57:23;;;;;;;7.45;6.70;;;17.50;83.90;;;;;;4990711;28;20045;-67
2022/06/25 04:59:48;;;;;;;7.85;7.05;;;17.50;83.00;;;;;;4990548;28;20037;-68
2022/06/25 05:02:14;;;;;;;7.30;6.60;;;17.50;83.00;;;;;;4990984;28;20104;-68
2022/06/25 05:04:39;;;;;;;6.88;5.80;;;17.50;83.10;;;;;;4991133;28;20030;-68
2022/06/25 05:07:05;;;;;;;6.72;5.90;;;17.60;83.30;;;;;;4995341;28;20057;-68
2022/06/25 05:09:31;;;;;;;6.13;5.43;;;17.60;83.50;;;;;;4995803;28;20417;-68
2022/06/25 05:11:57;;;;;;;5.50;5.00;;;17.60;83.40;;;;;;4994316;28;20046;-68
2022/06/25 05:14:22;;;;;;;6.00;5.22;;;17.60;83.30;;;;;;4996378;28;20077;-68
2022/06/25 05:16:48;;;;;;;5.57;5.07;;;17.70;83.20;;;;;;4991412;28;20038;-68
2022/06/25 05:19:13;;;;;;;5.70;5.18;;;17.70;83.30;;;;;;4995890;28;20350;-67
2022/06/25 05:21:39;;;;;;;5.53;4.60;;;17.70;83.40;;;;;;4992088;28;20480;-68
2022/06/25 05:24:05;;;;;;;5.70;5.20;;;17.80;83.50;;;;;;4993873;28;20568;-68
2022/06/25 05:26:31;;;;;;;5.20;4.80;;;17.80;83.40;;;;;;4992012;28;20054;-68
2022/06/25 05:28:57;;;;;;;5.82;5.32;;;17.80;83.30;;;;;;4992477;28;20069;-68
2022/06/25 05:31:23;;;;;;;5.75;5.25;;;17.80;83.30;;;;;;4994799;28;20033;-68
2022/06/25 05:33:49;;;;;;;8.60;5.20;;;17.90;83.30;;;;;;4992429;28;20045;-67
2022/06/25 05:36:15;;;;;;;10.35;4.78;;;17.90;83.30;;;;;;4992491;28;20030;-68
2022/06/25 05:38:41;;;;;;;4.88;4.10;;;18.00;83.30;;;;;;4991683;28;20039;-67
2022/06/25 05:41:09;;;;;;;4.82;4.32;;;18.00;83.40;;;;;;4992764;28;21279;-68
2022/06/25 05:43:39;;;;;;;5.60;4.93;;;18.00;83.50;;;;;;4992741;28;20121;-68
2022/06/25 05:46:05;;;;;;;4.45;4.05;;;18.10;84.60;;;;;;4993718;28;20387;-69
2022/06/25 05:48:31;;;;;;;4.93;4.53;;;18.20;83.60;;;;;;4992846;28;20044;-69
2022/06/25 05:50:57;;;;;;;5.00;4.50;;;18.20;83.60;;;;;;4994351;28;20477;-68
2022/06/25 05:53:24;;;;;;;5.93;4.88;;;18.30;83.50;;;;;;4992960;28;20041;-69
2022/06/25 05:55:49;;;;;;;7.43;5.28;;;18.40;83.60;;;;;;4992477;28;20033;-68
2022/06/25 05:58:15;;;;;;;6.78;4.80;;;18.50;83.70;;;;;;4994408;28;20038;-69
2022/06/25 06:00:41;;;;;;;5.50;5.00;;;18.50;83.60;;;;;;4994344;28;20283;-67
2022/06/25 06:03:07;;;;;;;4.93;4.53;;;18.60;83.30;;;;;;4993284;28;20031;-69
2022/06/25 06:05:33;;;;;;;4.28;3.88;;;18.60;82.90;;;;;;4995981;28;20069;-68
2022/06/25 06:07:58;;;;;;;4.25;3.83;;;18.60;82.60;;;;;;4994025;28;20045;-69
2022/06/25 06:10:24;;;;;;;4.00;3.67;;;18.70;82.60;;;;;;4994435;28;20106;-68
2022/06/25 06:12:49;;;;;;;4.78;3.35;;;18.70;82.60;;;;;;4994112;28;20053;-68
2022/06/25 06:15:15;;;;;;;4.18;3.25;;;18.70;82.10;;;;;;4975983;28;20429;-68
2022/06/25 06:17:41;;;;;;;3.40;3.15;;;18.70;81.80;;;;;;4995623;28;20212;-68
2022/06/25 06:20:07;;;;;;;3.70;3.20;;;18.70;81.50;;;;;;4991992;28;20045;-68
2022/06/25 06:22:33;;;;;;;3.05;2.85;;;18.70;81.30;;;;;;4995951;28;20033;-67
2022/06/25 06:24:59;;;;;;;3.63;3.33;;;18.70;81.70;;;;;;4992676;28;20038;-68
2022/06/25 06:27:25;;;;;;;3.95;3.65;;;18.80;81.90;;;;;;4994756;28;20037;-69
2022/06/25 06:29:50;;;;;;;4.72;4.28;;;18.80;81.90;;;;;;4993666;28;20038;-68
2022/06/25 06:32:16;;;;;;;4.55;4.15;;;18.90;81.90;;;;;;4997426;28;20124;-68
2022/06/25 06:34:42;;;;;;;5.82;4.18;;;18.90;81.70;;;;;;4993399;28;20107;-68
2022/06/25 06:37:07;;;;;;;4.50;4.03;;;18.90;81.50;;;;;;4998559;28;20069;-69
2022/06/25 06:39:33;;;;;;;3.92;3.58;;;19.00;81.30;;;;;;4996544;28;20553;-68
2022/06/25 06:41:59;;;;;;;3.95;3.65;;;19.00;81.20;;;;;;4998518;28;20705;-69
2022/06/25 06:44:25;;;;;;;4.38;3.97;;;19.10;81.20;;;;;;4996188;28;20030;-69
2022/06/25 06:46:51;;;;;;;4.03;3.72;;;19.20;81.20;;;;;;4994406;28;20042;-68
2022/06/25 06:49:16;;;;;;;5.05;4.05;;;19.20;80.90;;;;;;4993601;28;20033;-69
2022/06/25 06:51:42;;;;;;;5.55;4.38;;;19.30;80.80;;;;;;4989642;28;20121;-67
2022/06/25 06:54:07;;;;;;;3.80;3.50;;;19.30;80.70;;;;;;4991820;28;20031;-69
2022/06/25 06:56:33;;;;;;;3.70;3.40;;;19.50;80.60;;;;;;4990984;28;20436;-68
2022/06/25 06:58:59;;;;;;;3.75;3.45;;;19.50;80.20;;;;;;4993030;28;20045;-69
2022/06/25 07:01:25;;;;;;;3.90;3.60;;;19.60;79.90;;;;;;4992666;28;20046;-68
2022/06/25 07:03:51;;;;;;;3.78;3.47;;;19.60;79.60;;;;;;4992575;28;20053;-68
2022/06/25 07:06:17;;;;;;;3.83;3.45;;;19.60;79.20;;;;;;4992285;28;20394;-68
2022/06/25 07:08:42;;;;;;;4.40;3.67;;;19.70;79.00;;;;;;4994507;28;20522;-69
2022/06/25 07:13:53;;;;;;;3.33;3.03;;;19.70;79.10;;;;;;4993478;28;20057;-69
2022/06/25 07:16:19;;;;;;;3.30;3.00;;;19.70;79.00;;;;;;4992886;28;20042;-69
2022/06/25 07:18:45;;;;;;;3.38;3.10;;;19.80;79.40;;;;;;4993463;28;20042;-69
2022/06/25 07:21:11;;;;;;;4.30;3.67;;;19.80;79.30;;;;;;4993265;28;20038;-68
2022/06/25 07:23:37;;;;;;;4.90;3.92;;;19.90;79.20;;;;;;4992810;28;20041;-69
2022/06/25 07:26:02;;;;;;;3.45;3.15;;;20.00;79.30;;;;;;4989983;28;20089;-69
2022/06/25 07:28:28;;;;;;;3.92;3.60;;;20.10;79.40;;;;;;4994313;28;20544;-68
2022/06/25 07:30:54;;;;;;;4.43;3.97;;;20.20;78.90;;;;;;4991360;28;20037;-67
2022/06/25 07:33:19;;;;;;;3.85;3.55;;;20.30;78.50;;;;;;4981159;28;20037;-69
2022/06/25 07:35:46;;;;;;;5.25;3.67;;;20.30;78.10;;;;;;4992168;28;20030;-68
2022/06/25 07:38:11;;;;;;;3.53;3.22;;;20.30;77.50;;;;;;4993166;28;20037;-69
2022/06/25 07:40:37;;;;;;;3.83;3.00;;;20.40;77.70;;;;;;4992489;28;20502;-69
2022/06/25 07:43:02;;;;;;;3.38;3.08;;;20.40;77.60;;;;;;4989824;28;20431;-68
2022/06/25 07:45:28;;;;;;;3.08;2.88;;;20.40;77.10;;;;;;4994229;28;20039;-68
2022/06/25 07:47:54;;;;;;;2.92;2.72;;;20.50;77.10;;;;;;4992232;28;20272;-68
2022/06/25 07:53:04;;;;;;;3.13;2.90;;;20.60;76.80;;;;;;4990337;28;20784;-68
2022/06/25 07:55:30;;;;;;;2.13;2.03;;;20.70;77.20;;;;;;4993008;28;20026;-69
2022/06/25 07:57:55;;;;;;;2.88;2.42;;;20.80;76.90;;;;;;4990560;28;20596;-69
2022/06/25 08:00:22;;;;;;;3.60;3.30;;;20.90;76.90;;;;;;4992786;28;20038;-69
2022/06/25 08:02:48;;;;;;;4.32;3.08;;;20.90;76.50;;;;;;4991823;28;20402;-68
2022/06/25 08:05:13;;;;;;;3.10;2.90;;;21.00;76.50;;;;;;4994199;28;20071;-69
2022/06/25 08:07:39;;;;;;;2.58;2.38;;;21.10;76.10;;;;;;4992098;28;20121;-67
2022/06/25 08:10:06;;;;;;;3.03;2.83;;;21.20;76.90;;;;;;4992793;28;20231;-68
2022/06/25 08:12:32;;;;;;;2.97;2.75;;;21.30;75.40;;;;;;4989427;28;20038;-67
2022/06/25 08:14:58;;;;;;;3.80;2.42;;;21.30;75.60;;;;;;4991099;28;20026;-66
2022/06/25 08:17:24;;;;;;;2.00;1.90;;;21.40;74.70;;;;;;4980754;28;20081;-69
2022/06/25 08:19:50;;;;;;;1.90;1.80;;;21.40;74.10;;;;;;4994471;28;20062;-68
2022/06/25 08:22:15;;;;;;;2.45;2.30;;;21.50;73.90;;;;;;4993275;28;20379;-69
2022/06/25 08:24:41;;;;;;;3.22;2.40;;;21.60;74.20;;;;;;4993129;28;20104;-68
2022/06/25 08:27:07;;;;;;;2.17;2.08;;;21.60;73.30;;;;;;4990447;28;20042;-68
2022/06/25 08:29:32;;;;;;;2.25;2.08;;;21.60;73.10;;;;;;4992592;28;20394;-69
2022/06/25 08:31:58;;;;;;;1.95;1.85;;;21.60;72.30;;;;;;4991203;28;20529;-68
2022/06/25 08:34:24;;;;;;;1.92;1.80;;;21.60;71.90;;;;;;4992038;28;20034;-69
2022/06/25 08:36:49;;;;;;;3.03;1.70;;;21.60;72.10;;;;;;4990994;28;20038;-67
2022/06/25 08:39:15;;;;;;;1.70;1.60;;;21.70;72.20;;;;;;4992140;28;20022;-68
2022/06/25 08:41:41;;;;;;;1.98;1.88;;;21.80;72.60;;;;;;4995940;28;20034;-68
2022/06/25 08:44:07;;;;;;;1.80;1.70;;;21.80;72.70;;;;;;4992223;28;20038;-68
2022/06/25 08:46:34;;;;;;;2.97;0.85;;;21.90;72.10;;;;;;4995527;28;20077;-68
2022/06/25 08:49:00;;;;;;;1.05;0.98;;;22.10;72.10;;;;;;4997605;28;20402;-69
2022/06/25 08:51:28;;;;;;;0.88;0.77;;;22.20;71.10;;;;;;4997743;28;20446;-68
2022/06/25 08:53:56;;;;;;;0.85;0.85;;;22.30;70.90;;;;;;4997774;28;20038;-69
2022/06/25 08:56:23;;;;;;;1.38;0.98;;;22.40;70.90;;;;;;4997283;28;20030;-69
2022/06/25 08:58:48;;;;;;;0.88;0.70;;;22.60;70.50;;;;;;4995513;28;20034;-68
2022/06/25 09:01:14;;;;;;;0.60;0.60;;;22.70;69.60;;;;;;4996344;28;20065;-69
2022/06/25 09:03:40;;;;;;;1.25;0.60;;;22.80;68.00;;;;;;4995278;28;20564;-68
2022/06/25 09:06:13;;;;;;;0.85;0.68;;;22.90;68.00;;;;;;4996316;28;20050;-68
2022/06/25 09:08:40;;;;;;;1.13;0.70;;;23.00;67.30;;;;;;4994602;28;20034;-68
2022/06/25 09:11:06;;;;;;;1.17;0.70;;;23.10;68.20;;;;;;4995993;28;20034;-68
2022/06/25 09:13:31;;;;;;;1.10;0.88;;;23.20;68.00;;;;;;4995935;28;20035;-69
2022/06/25 09:15:57;;;;;;;1.67;0.90;;;23.40;68.00;;;;;;4995975;28;20033;-68
2022/06/25 09:18:22;;;;;;;1.20;0.88;;;23.40;67.60;;;;;;4997144;28;20037;-68
2022/06/25 09:21:00;;;;;;;0.70;0.70;;;23.60;67.50;;;;;;4994025;28;20046;-67
2022/06/25 09:23:27;;;;;;;1.05;0.70;;;23.70;65.90;;;;;;4996286;28;20038;-69
2022/06/25 09:26:19;;;;;;;0.50;0.50;;;23.80;65.90;;;;;;4994661;28;20027;-69
2022/06/25 09:28:46;;;;;;;0.98;0.80;;;23.90;65.30;;;;;;4989317;28;20155;-68
2022/06/25 09:31:12;;;;;;;0.50;0.50;;;24.00;64.10;;;;;;4983219;28;20049;-68
2022/06/25 09:33:39;;;;;;;1.33;0.80;;;24.10;64.40;;;;;;4995781;28;20034;-69
2022/06/25 09:36:09;;;;;;;0.80;0.55;;;24.10;64.00;;;;;;4998319;28;20388;-68
2022/06/25 09:38:37;;;;;;;0.57;0.57;;;24.20;63.80;;;;;;4994147;28;20531;-68
2022/06/25 09:41:02;;;;;;;0.60;0.60;;;24.30;63.80;;;;;;4978662;28;20097;-68
2022/06/25 09:43:37;;;;;;;1.25;0.60;;;24.40;63.30;;;;;;4995496;28;20041;-68
2022/06/25 09:46:04;;;;;;;;;;;24.40;61.60;;;;;;4994945;28;20037;-69
2022/06/25 09:48:31;;;;;;;0.65;0.65;;;24.50;63.70;;;;;;4994461;28;19921;-69
2022/06/25 09:51:07;;;;;;;0.40;0.40;;;24.60;62.20;;;;;;4991899;28;20038;-69
2022/06/25 09:53:34;;;;;;;0.50;0.50;;;24.60;61.40;;;;;;4990881;28;20269;-69
2022/06/25 09:56:01;;;;;;;1.50;0.50;;;24.70;61.50;;;;;;4990946;28;20298;-68
2022/06/25 09:58:30;;;;;;;0.57;0.52;;;24.70;62.30;;;;;;4994441;28;20153;-69
2022/06/25 10:00:56;;;;;;;0.70;0.55;;;24.80;62.20;;;;;;4994681;28;20069;-68
2022/06/25 10:03:24;;;;;;;0.50;0.50;;;24.80;61.90;;;;;;4984778;28;20034;-68
2022/06/25 10:05:51;;;;;;;0.50;0.50;;;24.90;61.20;;;;;;4995650;28;20037;-69
2022/06/25 10:08:18;;;;;;;1.75;0.52;;;25.00;58.60;;;;;;4996934;28;20030;-68
2022/06/25 10:10:48;;;;;;;0.55;0.50;;;25.00;59.60;;;;;;4995214;28;20515;-69
2022/06/25 10:13:14;;;;;;;0.40;0.40;;;25.00;59.40;;;;;;4995505;28;20134;-69
2022/06/25 10:15:40;;;;;;;0.85;0.40;;;25.00;59.20;;;;;;4993738;28;20569;-69
2022/06/25 10:18:10;;;;;;;0.73;0.43;;;25.00;59.00;;;;;;4996420;28;20121;-69
2022/06/25 10:20:36;;;;;;;0.40;0.40;;;25.00;57.60;;;;;;4996024;28;20079;-68
2022/06/25 10:23:04;;;;;;;0.52;0.50;;;25.00;57.80;;;;;;4997015;28;20061;-69
2022/06/25 10:25:31;;;;;;;0.43;0.40;;;25.00;57.90;;;;;;4995542;28;20465;-69
2022/06/25 10:28:23;;;;;;;0.60;0.50;;;25.00;58.70;;;;;;4982104;28;20034;-69
2022/06/25 10:30:58;;;;;;;1.20;0.40;;;25.10;57.60;;;;;;4993508;28;20394;-68
2022/06/25 10:33:26;;;;;;;0.80;0.40;;;25.10;58.00;;;;;;4993904;28;20041;-68
2022/06/25 10:35:56;;;;;;;0.75;0.50;;;25.20;58.10;;;;;;4995337;28;20031;-69
2022/06/25 10:38:24;;;;;;;0.65;0.30;;;25.30;57.50;;;;;;4995579;28;20408;-68
2022/06/25 10:43:49;;;;;;;2.33;0.40;;;25.50;56.90;;;;;;4993883;28;20121;-69
2022/06/25 10:46:36;;;;;;;0.93;0.35;;;25.60;57.50;;;;;;4991908;28;20672;-69
2022/06/25 10:49:05;;;;;;;0.40;0.40;;;25.70;55.80;;;;;;4993005;28;20217;-69
2022/06/25 10:51:50;;;;;;;0.50;0.40;;;25.70;56.80;;;;;;4994917;28;20118;-69
2022/06/25 10:54:22;;;;;;;0.95;0.45;;;25.70;55.10;;;;;;4995717;28;20056;-69
2022/06/25 10:56:49;;;;;;;0.40;0.40;;;25.80;55.90;;;;;;4992912;28;20180;-68
2022/06/25 10:59:47;;;;;;;0.30;0.30;;;25.70;55.10;;;;;;4994310;28;20041;-69
2022/06/25 11:02:15;;;;;;;0.45;0.40;;;25.70;54.60;;;;;;4962997;28;20036;-69
2022/06/25 11:04:54;;;;;;;0.50;0.20;;;25.70;56.00;;;;;;4992733;28;20409;-69
2022/06/25 11:07:25;;;;;;;0.32;0.32;;;25.80;55.40;;;;;;4991695;28;20608;-69
2022/06/25 11:09:59;;;;;;;0.60;0.45;;;25.80;55.50;;;;;;4993416;28;20097;-69
2022/06/25 11:12:27;;;;;;;0.30;0.30;;;25.90;54.40;;;;;;4991956;28;20464;-69
2022/06/25 11:15:03;;;;;;;0.30;0.30;;;25.90;55.50;;;;;;4992201;28;20050;-69
2022/06/25 11:17:30;;;;;;;0.38;0.30;;;26.00;55.10;;;;;;4995682;28;20035;-69
2022/06/25 11:20:06;;;;;;;0.70;0.30;;;26.10;56.00;;;;;;4993888;28;20037;-69
2022/06/25 11:22:31;;;;;;;1.35;0.32;;;26.20;55.20;;;;;;4978054;28;20030;-70
2022/06/25 11:30:27;;;;;;;0.63;0.20;;;26.40;54.80;;;;;;4989886;28;20101;-70
2022/06/25 11:32:53;;;;;;;1.17;0.20;;;26.40;54.10;;;;;;4992257;28;20047;-69
2022/06/25 11:35:19;;;;;;;0.75;0.30;;;26.40;54.30;;;;;;4992005;28;20073;-69
2022/06/25 11:37:45;;;;;;;0.20;0.20;;;26.40;53.40;;;;;;4994675;28;20113;-69
2022/06/25 11:40:16;;;;;;;0.38;0.30;;;26.50;53.80;;;;;;4991313;28;20157;-69
2022/06/25 11:42:43;;;;;;;0.20;0.20;;;26.50;53.10;;;;;;4991998;28;20038;-69
2022/06/25 11:45:09;;;;;;;0.65;0.30;;;26.60;54.00;;;;;;4991855;28;20113;-69
2022/06/25 11:47:36;;;;;;;5.53;1.75;;;26.70;53.70;;;;;;4991785;28;20084;-69
2022/06/25 11:50:10;;;;;;;1.23;0.57;;;26.80;53.60;;;;;;4994198;28;20046;-69
2022/06/25 11:52:42;;;;;;;0.52;0.40;;;26.80;52.50;;;;;;4989762;28;20515;-69
2022/06/25 11:55:09;;;;;;;1.35;0.20;;;26.80;53.10;;;;;;4991233;28;20414;-69
2022/06/25 11:57:43;;;;;;;1.30;0.30;;;26.90;53.20;;;;;;4991820;28;21259;-69
2022/06/25 12:00:13;;;;;;;1.43;0.20;;;26.90;52.50;;;;;;4992914;28;20045;-69
2022/06/25 12:02:43;;;;;;;0.30;0.30;;;27.00;52.20;;;;;;4993071;28;20038;-69
2022/06/25 12:05:10;;;;;;;0.30;0.30;;;27.00;51.60;;;;;;4993550;28;20811;-69
2022/06/25 12:07:37;;;;;;;0.43;0.20;;;26.90;51.20;;;;;;4990401;28;20033;-69
2022/06/25 12:10:13;;;;;;;0.20;0.20;;;27.00;52.20;;;;;;4993050;28;20034;-70
2022/06/25 12:12:39;;;;;;;0.60;0.30;;;27.00;51.90;;;;;;4979796;28;20042;-69
2022/06/25 12:15:07;;;;;;;0.30;0.30;;;27.00;52.50;;;;;;4997950;28;20031;-68
2022/06/25 12:17:38;;;;;;;0.30;0.20;;;27.00;52.10;;;;;;5001646;28;20455;-69
2022/06/25 12:20:14;;;;;;;0.40;0.30;;;27.10;51.60;;;;;;5001286;28;20048;-69
2022/06/25 12:22:46;;;;;;;0.73;0.40;;;27.10;50.40;;;;;;5000434;28;20077;-69
2022/06/25 12:25:21;;;;;;;0.28;0.20;;;27.10;51.00;;;;;;5000692;28;20053;-69
2022/06/25 12:27:49;;;;;;;0.43;0.20;;;27.10;51.30;;;;;;4999697;28;20462;-70
2022/06/25 12:30:28;;;;;;;0.28;0.28;;;27.10;50.60;;;;;;5001250;28;20442;-69
2022/06/25 12:32:56;;;;;;;1.23;0.20;;;27.10;50.60;;;;;;4996619;28;20524;-69
2022/06/25 12:35:24;;;;;;;0.52;0.30;;;27.00;51.60;;;;;;5000497;28;20413;-69
2022/06/25 12:38:03;;;;;;;0.20;0.20;;;27.00;50.80;;;;;;5000603;28;20038;-69
2022/06/25 12:40:37;;;;;;;0.25;0.20;;;27.10;50.50;;;;;;5000291;28;20034;-69
2022/06/25 12:43:06;;;;;;;1.07;0.30;;;27.10;51.60;;;;;;4999434;28;20029;-68
2022/06/25 12:45:32;;;;;;;0.82;0.30;;;27.10;51.10;;;;;;5001040;28;20776;-69
2022/06/25 12:47:59;;;;;;;0.63;0.30;;;27.20;50.20;;;;;;4999133;28;20037;-70
2022/06/25 12:50:29;;;;;;;0.28;0.20;;;27.20;49.80;;;;;;4997819;28;20157;-69
2022/06/25 12:52:55;;;;;;;1.65;0.50;;;27.10;51.00;;;;;;4998169;28;20052;-67
2022/06/25 12:55:24;;;;;;;0.75;0.22;;;27.20;50.70;;;;;;5000323;28;20064;-69
2022/06/25 12:57:50;;;;;;;0.20;0.20;;;27.20;50.20;;;;;;4972211;28;20034;-69
2022/06/25 13:00:24;;;;;;;0.25;0.20;;;27.20;49.90;;;;;;4998967;28;20113;-69
2022/06/25 13:02:50;;;;;;;0.30;0.30;;;27.30;49.40;;;;;;4998301;28;20105;-69
2022/06/25 13:05:17;;;;;;;0.20;0.20;;;27.30;49.80;;;;;;4998906;28;20053;-69
2022/06/25 13:07:43;;;;;;;0.20;0.20;;;27.40;49.40;;;;;;4998510;28;20046;-69